Aviation Digital Data Service (ADDS)

Output produced by METARs form (0027 UTC 24 July 2014)
found at http://aviationweather.gov/adds/metars/
 
KART 232325Z 2400/2424 01006KT P6SM BKN035 
     FM240500 02005KT P6SM SCT040 
     FM241400 30010KT P6SM SKC 
     FM242100 26006KT P6SM SKC